createdAt,value
2022-09-16T00:02:17.379Z,100135.06
2022-09-16T00:05:19.989Z,100127.94
2022-09-16T00:08:23.263Z,100135.72
2022-09-16T00:11:26.103Z,100128.41
2022-09-16T00:14:29.937Z,100136.78
2022-09-16T00:17:32.787Z,100136.59
2022-09-16T00:20:35.367Z,100134.31
2022-09-16T00:23:38.435Z,100131.84
2022-09-16T00:26:41.090Z,100145.91
2022-09-16T00:29:44.911Z,100144.38
2022-09-16T00:32:47.418Z,100139.44
2022-09-16T00:35:49.918Z,100124.16
2022-09-16T00:38:54.755Z,100126.34
2022-09-16T00:41:57.317Z,100128.31
2022-09-16T00:45:03.288Z,100126.34
2022-09-16T00:48:08.395Z,100129.53
2022-09-16T00:51:12.729Z,100130.13
2022-09-16T00:54:17.038Z,100143.28
2022-09-16T00:57:19.814Z,100135.44
2022-09-16T01:00:23.721Z,100149.09
2022-09-16T01:03:27.080Z,100156.50
2022-09-16T01:06:30.168Z,100147.28
2022-09-16T01:09:33.233Z,100153.81
2022-09-16T01:12:37.343Z,100144.19
2022-09-16T01:15:48.589Z,100142.66
2022-09-16T01:19:01.941Z,100142.94
2022-09-16T01:22:17.557Z,100136.53
2022-09-16T01:25:38.230Z,100134.75
2022-09-16T01:29:07.667Z,100136.81
2022-09-16T01:32:15.499Z,100147.53
2022-09-16T01:35:27.709Z,100151.56
2022-09-16T01:38:50.725Z,100151.03
2022-09-16T01:42:05.728Z,100145.00
2022-09-16T01:45:17.494Z,100142.66
2022-09-16T01:48:27.497Z,100145.31
2022-09-16T01:51:36.111Z,100146.59
2022-09-16T01:54:42.535Z,100150.06
2022-09-16T01:57:53.096Z,100137.13
2022-09-16T02:01:03.902Z,100133.88
2022-09-16T02:04:14.706Z,100133.13
2022-09-16T02:07:20.628Z,100135.56
2022-09-16T02:10:27.410Z,100133.88
2022-09-16T02:13:34.816Z,100126.09
2022-09-16T02:16:43.064Z,100116.41
2022-09-16T02:19:53.425Z,100113.47
2022-09-16T02:23:01.241Z,100114.44
2022-09-16T02:26:07.601Z,100112.72
2022-09-16T02:29:15.351Z,100115.38
2022-09-16T02:32:20.420Z,100117.00
2022-09-16T02:35:28.067Z,100113.22
2022-09-16T02:38:35.960Z,100108.78
2022-09-16T02:41:40.586Z,100105.88
2022-09-16T02:44:44.331Z,100107.03
2022-09-16T02:47:55.327Z,100114.56
2022-09-16T02:51:06.533Z,100122.31
2022-09-16T02:54:15.727Z,100122.44
2022-09-16T02:57:18.749Z,100124.75
2022-09-16T03:00:22.247Z,100127.28
2022-09-16T03:03:24.949Z,100117.31
2022-09-16T03:06:30.007Z,100105.72
2022-09-16T03:09:35.739Z,100100.97
2022-09-16T03:12:49.501Z,100100.31
2022-09-16T03:16:04.200Z,100110.81
2022-09-16T03:19:16.232Z,100102.31
2022-09-16T03:22:30.443Z,100102.31
2022-09-16T03:25:44.143Z,100103.63
2022-09-16T03:28:55.793Z,100101.63
2022-09-16T03:32:06.003Z,100096.41
2022-09-16T03:35:12.922Z,100083.69
2022-09-16T03:38:19.407Z,100094.56
2022-09-16T03:41:23.037Z,100091.97
2022-09-16T03:44:33.068Z,100099.66
2022-09-16T03:47:35.875Z,100099.72
2022-09-16T03:50:38.490Z,100101.63
2022-09-16T03:53:42.421Z,100100.44
2022-09-16T03:56:45.122Z,100096.31
2022-09-16T03:59:47.649Z,100097.38
2022-09-16T04:02:50.320Z,100085.47
2022-09-16T04:05:54.499Z,100083.25
2022-09-16T04:08:59.322Z,100083.16
2022-09-16T04:12:02.475Z,100086.19
2022-09-16T04:15:05.713Z,100092.66
2022-09-16T04:18:08.521Z,100095.50
2022-09-16T04:21:10.993Z,100097.03
2022-09-16T04:24:15.055Z,100091.06
2022-09-16T04:27:17.530Z,100075.16
2022-09-16T04:30:20.428Z,100083.00
2022-09-16T04:33:23.203Z,100085.19
2022-09-16T04:36:25.783Z,100076.59
2022-09-16T04:39:29.602Z,100073.94
2022-09-16T04:42:32.153Z,100066.75
2022-09-16T04:45:34.633Z,100068.03
2022-09-16T04:48:37.718Z,100075.56
2022-09-16T04:51:40.364Z,100068.47
2022-09-16T04:54:44.252Z,100074.66
2022-09-16T04:57:46.722Z,100066.59
2022-09-16T05:00:49.209Z,100067.72
2022-09-16T05:03:53.830Z,100063.78
2022-09-16T05:06:56.350Z,100063.28
2022-09-16T05:10:00.190Z,100064.09
2022-09-16T05:13:02.699Z,100057.16
2022-09-16T05:16:07.276Z,100063.19
2022-09-16T05:19:12.308Z,100069.19
2022-09-16T05:22:14.817Z,100069.72
2022-09-16T05:25:18.915Z,100073.66
2022-09-16T05:28:21.687Z,100071.25
2022-09-16T05:31:27.476Z,100074.00
2022-09-16T05:34:30.017Z,100080.34
2022-09-16T05:37:32.525Z,100076.59
2022-09-16T05:40:36.472Z,100073.38
2022-09-16T05:43:39.679Z,100071.06
2022-09-16T05:46:43.665Z,100074.31
2022-09-16T05:49:46.151Z,100061.97
2022-09-16T05:52:48.629Z,100064.59
2022-09-16T05:56:00.866Z,100067.09
2022-09-16T05:59:03.541Z,100077.09
2022-09-16T06:02:06.172Z,100078.41
2022-09-16T06:05:09.497Z,100074.06
2022-09-16T06:08:12.010Z,100071.34
2022-09-16T06:11:16.022Z,100073.03
2022-09-16T06:14:19.754Z,100068.81
2022-09-16T06:17:22.267Z,100068.75
2022-09-16T06:20:24.901Z,100062.31
2022-09-16T06:23:27.386Z,100059.91
2022-09-16T06:26:31.508Z,100059.78
2022-09-16T06:29:34.058Z,100055.31
2022-09-16T06:32:36.551Z,100060.47
2022-09-16T06:35:39.133Z,100055.31
2022-09-16T06:38:42.192Z,100058.34
2022-09-16T06:41:46.773Z,100048.13
2022-09-16T06:44:49.251Z,100054.31
2022-09-16T06:47:51.738Z,100042.75
2022-09-16T06:51:00.884Z,100043.69
2022-09-16T06:54:05.423Z,100031.41
2022-09-16T06:57:12.276Z,100049.09
2022-09-16T07:00:15.597Z,100034.84
2022-09-16T07:03:18.281Z,100038.28
2022-09-16T07:06:26.645Z,100034.16
2022-09-16T07:09:41.209Z,100041.47
2022-09-16T07:12:45.053Z,100037.59
2022-09-16T07:16:11.851Z,100039.78
2022-09-16T07:19:10.851Z,100032.91
2022-09-16T07:22:13.468Z,100028.13
2022-09-16T07:25:16.205Z,100031.94
2022-09-16T07:28:20.071Z,100024.81
2022-09-16T07:31:27.552Z,100038.09
2022-09-16T07:34:30.913Z,100040.16
2022-09-16T07:37:33.401Z,100036.13
2022-09-16T07:40:35.939Z,100033.22
2022-09-16T07:43:40.421Z,100040.19
2022-09-16T07:46:43.624Z,100039.38
2022-09-16T07:49:46.791Z,100048.56
2022-09-16T07:52:49.271Z,100034.66
2022-09-16T07:55:51.879Z,100042.31
2022-09-16T07:58:56.603Z,100034.69
2022-09-16T08:01:59.220Z,100039.84
2022-09-16T08:05:01.787Z,100043.66
2022-09-16T08:08:04.390Z,100035.88
2022-09-16T08:11:09.005Z,100029.69
2022-09-16T08:14:12.862Z,100025.34
2022-09-16T08:17:16.133Z,100040.69
2022-09-16T08:20:18.818Z,100031.78
2022-09-16T08:23:21.323Z,100032.47
2022-09-16T08:26:24.295Z,100026.00
2022-09-16T08:29:28.173Z,100037.38
2022-09-16T08:32:30.931Z,100027.72
2022-09-16T08:35:33.478Z,100042.56
2022-09-16T08:38:36.077Z,100047.47
2022-09-16T08:42:29.518Z,100043.97
2022-09-16T08:45:41.412Z,100034.41
2022-09-16T08:48:53.860Z,100041.16
2022-09-16T08:51:57.947Z,100043.91
2022-09-16T08:55:03.546Z,100050.53
2022-09-16T08:58:12.607Z,100046.53
2022-09-16T09:01:22.420Z,100050.38
2022-09-16T09:04:25.182Z,100044.25
2022-09-16T09:07:38.092Z,100057.56
2022-09-16T09:10:46.827Z,100051.47
2022-09-16T09:14:01.590Z,100044.38
2022-09-16T09:17:16.982Z,100040.00
2022-09-16T09:20:30.638Z,100046.19
2022-09-16T09:23:50.156Z,100029.41
2022-09-16T09:26:59.588Z,100028.91
2022-09-16T09:30:11.317Z,100037.53
2022-09-16T09:33:47.366Z,100027.22
2022-09-16T09:37:03.252Z,100028.25
2022-09-16T09:40:14.405Z,100038.88
2022-09-16T09:43:21.381Z,100025.22
2022-09-16T09:46:29.089Z,100024.25
2022-09-16T09:49:36.603Z,100033.88
2022-09-16T09:52:47.362Z,100042.28
2022-09-16T09:55:56.100Z,100025.81
2022-09-16T09:59:06.847Z,100034.41
2022-09-16T10:02:16.918Z,100021.81
2022-09-16T10:05:24.062Z,100013.44
2022-09-16T10:08:30.644Z,100025.50
2022-09-16T10:11:33.652Z,100010.09
2022-09-16T10:14:39.011Z,100012.16
2022-09-16T10:17:50.036Z,100011.72
2022-09-16T10:21:04.290Z,100007.66
2022-09-16T10:24:06.955Z,100006.25
2022-09-16T10:27:22.231Z,100006.59
2022-09-16T10:30:25.072Z,99994.56
2022-09-16T10:33:31.434Z,99987.63
2022-09-16T10:36:36.794Z,100004.59
2022-09-16T10:39:41.212Z,99987.59
2022-09-16T10:42:48.328Z,99994.22
2022-09-16T10:45:53.790Z,99995.31
2022-09-16T10:49:01.419Z,99994.06
2022-09-16T10:52:17.255Z,99980.00
2022-09-16T10:55:28.983Z,99970.97
2022-09-16T10:58:31.603Z,99965.16
2022-09-16T11:01:46.384Z,99957.34
2022-09-16T11:05:02.327Z,99958.88
2022-09-16T11:08:13.771Z,99954.50
2022-09-16T11:11:40.485Z,99955.25
2022-09-16T11:14:52.618Z,99942.94
2022-09-16T11:18:09.946Z,99955.66
2022-09-16T11:21:28.602Z,99953.34
2022-09-16T11:25:00.272Z,99954.47
2022-09-16T11:28:18.364Z,99968.81
2022-09-16T11:31:33.166Z,99969.69
2022-09-16T11:34:53.673Z,99994.84
2022-09-16T11:38:04.501Z,99994.94
2022-09-16T11:41:16.984Z,99979.28
2022-09-16T11:44:39.179Z,99981.31
2022-09-16T11:47:58.171Z,99974.91
2022-09-16T11:51:07.967Z,99965.19
2022-09-16T11:54:31.057Z,99958.91
2022-09-16T11:57:38.929Z,99942.66
2022-09-16T12:00:42.489Z,99941.69
2022-09-16T12:03:50.635Z,99949.03
2022-09-16T12:06:58.702Z,99933.38
2022-09-16T12:10:07.247Z,99932.53
2022-09-16T12:13:16.302Z,99924.03
2022-09-16T12:16:27.075Z,99918.84
2022-09-16T12:19:37.352Z,99916.31
2022-09-16T12:22:45.692Z,99910.84
2022-09-16T12:26:01.931Z,99910.94
2022-09-16T12:29:12.700Z,99900.75
2022-09-16T12:32:20.743Z,99896.72
2022-09-16T12:35:29.392Z,99890.47
2022-09-16T12:38:32.324Z,99902.91
2022-09-16T12:41:51.550Z,99892.97
2022-09-16T12:45:25.009Z,99909.91
2022-09-16T12:48:49.007Z,99908.75
2022-09-16T12:52:22.693Z,99908.31
2022-09-16T12:55:50.132Z,99898.06
2022-09-16T12:59:14.933Z,99887.84
2022-09-16T13:02:21.703Z,99884.00
2022-09-16T13:05:33.115Z,99872.69
2022-09-16T13:08:37.335Z,99872.47
2022-09-16T13:15:07.070Z,99891.75
2022-09-16T13:18:26.510Z,99897.38
2022-09-16T13:21:39.231Z,99893.97
2022-09-16T13:24:46.431Z,99894.16
2022-09-16T13:28:01.554Z,99882.63
2022-09-16T13:31:34.016Z,99873.75
2022-09-16T13:34:38.319Z,99875.34
2022-09-16T13:37:40.872Z,99872.41
2022-09-16T13:40:54.520Z,99865.78
2022-09-16T13:43:57.414Z,99882.22
2022-09-16T13:47:17.647Z,99874.97
2022-09-16T13:50:26.333Z,99897.53
2022-09-16T13:53:31.838Z,99881.91
2022-09-16T13:56:56.582Z,99880.03
2022-09-16T14:00:08.666Z,99869.69
2022-09-16T14:03:42.871Z,99873.00
2022-09-16T14:07:01.321Z,99871.94
2022-09-16T14:10:12.810Z,99884.16
2022-09-16T14:13:18.458Z,99880.66
2022-09-16T14:16:24.965Z,99883.19
2022-09-16T14:19:29.674Z,99880.22
2022-09-16T14:22:33.737Z,99869.03
2022-09-16T14:25:38.955Z,99870.56
2022-09-16T14:28:41.810Z,99864.63
2022-09-16T14:31:45.303Z,99853.31
2022-09-16T14:34:50.317Z,99858.31
2022-09-16T14:37:57.841Z,99844.63
2022-09-16T14:41:00.526Z,99848.31
2022-09-16T14:44:11.085Z,99832.06
2022-09-16T14:47:29.645Z,99832.88
2022-09-16T14:50:37.553Z,99798.94
2022-09-16T14:53:49.804Z,99804.44
2022-09-16T14:57:06.981Z,99806.69
2022-09-16T15:00:16.874Z,99790.50
2022-09-16T15:03:24.653Z,99776.88
2022-09-16T15:06:34.316Z,99775.25
2022-09-16T15:09:45.454Z,99761.41
2022-09-16T15:12:52.780Z,99752.91
2022-09-16T15:15:58.108Z,99758.84
2022-09-16T15:19:02.911Z,99760.47
2022-09-16T15:22:11.047Z,99744.63
2022-09-16T15:25:21.248Z,99742.13
2022-09-16T15:28:23.784Z,99732.03
2022-09-16T15:31:32.086Z,99721.69
2022-09-16T15:34:34.729Z,99705.25
2022-09-16T15:37:37.247Z,99694.56
2022-09-16T15:40:41.894Z,99699.88
2022-09-16T15:43:47.059Z,99702.84
2022-09-16T15:46:50.294Z,99696.78
2022-09-16T15:49:56.799Z,99693.28
2022-09-16T15:53:03.605Z,99691.31
2022-09-16T15:56:18.100Z,99682.97
2022-09-16T15:59:26.804Z,99682.28
2022-09-16T16:02:35.847Z,99664.63
2022-09-16T16:05:39.589Z,99670.97
2022-09-16T16:08:45.936Z,99679.94
2022-09-16T16:11:50.598Z,99664.75
2022-09-16T16:14:53.109Z,99667.13
2022-09-16T16:17:58.773Z,99669.25
2022-09-16T16:21:02.710Z,99668.69
2022-09-16T16:24:05.267Z,99671.38
2022-09-16T16:27:10.157Z,99663.38
2022-09-16T16:30:13.597Z,99664.88
2022-09-16T16:33:16.082Z,99666.28
2022-09-16T16:36:20.294Z,99660.22
2022-09-16T16:39:24.304Z,99666.28
2022-09-16T16:42:28.819Z,99673.97
2022-09-16T16:45:31.986Z,99680.88
2022-09-16T16:48:35.685Z,99695.88
2022-09-16T16:51:38.655Z,99693.88
2022-09-16T16:54:43.261Z,99686.84
2022-09-16T16:57:47.215Z,99688.78
2022-09-16T17:00:49.688Z,99696.97
2022-09-16T17:03:52.896Z,99692.84
2022-09-16T17:07:21.469Z,99693.28
2022-09-16T17:10:17.937Z,99706.72
2022-09-16T17:13:21.761Z,99711.94
2022-09-16T17:16:25.613Z,99712.47
2022-09-16T17:19:28.241Z,99717.16
2022-09-16T17:22:30.739Z,99722.06
2022-09-16T17:25:34.702Z,99731.53
2022-09-16T17:28:40.093Z,99737.81
2022-09-16T17:31:43.195Z,99740.81
2022-09-16T17:34:45.862Z,99743.69
2022-09-16T17:37:48.332Z,99751.69
2022-09-16T17:40:50.848Z,99757.53
2022-09-16T17:43:55.354Z,99767.56
2022-09-16T17:46:57.825Z,99780.66
2022-09-16T17:50:03.530Z,99769.78
2022-09-16T17:53:06.011Z,99778.41
2022-09-16T17:56:10.968Z,99785.88
2022-09-16T17:59:17.881Z,99786.84
2022-09-16T18:02:22.251Z,99797.50
2022-09-16T18:05:29.318Z,99794.50
2022-09-16T18:08:32.561Z,99802.09
2022-09-16T18:11:35.536Z,99804.88
2022-09-16T18:14:39.362Z,99814.13
2022-09-16T18:17:42.019Z,99807.53
2022-09-16T18:20:44.622Z,99805.59
2022-09-16T18:23:49.596Z,99822.88
2022-09-16T18:26:52.217Z,99818.94
2022-09-16T18:29:57.726Z,99824.38
2022-09-16T18:33:00.201Z,99825.47
2022-09-16T18:36:05.048Z,99833.53
2022-09-16T18:39:11.219Z,99831.81
2022-09-16T18:42:13.927Z,99830.03
2022-09-16T18:45:17.993Z,99839.94
2022-09-16T18:48:20.466Z,99847.41
2022-09-16T18:51:24.616Z,99848.78
2022-09-16T18:54:29.464Z,99850.19
2022-09-16T18:57:31.950Z,99859.03
2022-09-16T19:00:36.530Z,99854.66
2022-09-16T19:03:39.004Z,99865.19
2022-09-16T19:06:43.400Z,99860.97
2022-09-16T19:09:46.729Z,99870.84
2022-09-16T19:12:49.197Z,99870.22
2022-09-16T19:15:56.765Z,99869.56
2022-09-16T19:19:00.823Z,99885.59
2022-09-16T19:22:05.791Z,99887.31
2022-09-16T19:25:08.781Z,99884.16
2022-09-16T19:28:11.270Z,99891.13
2022-09-16T19:31:15.655Z,99894.13
2022-09-16T19:34:18.569Z,99900.94
2022-09-16T19:37:21.626Z,99897.31
2022-09-16T19:40:24.171Z,99907.56
2022-09-16T19:43:26.707Z,99914.72
2022-09-16T19:46:33.986Z,99909.25
2022-09-16T19:49:36.480Z,99910.53
2022-09-16T19:52:40.582Z,99924.84
2022-09-16T19:55:43.364Z,99916.09
2022-09-16T19:58:45.837Z,99920.56
2022-09-16T20:01:50.099Z,99921.41
2022-09-16T20:04:52.627Z,99920.56
2022-09-16T20:07:55.207Z,99921.41
2022-09-16T20:11:03.542Z,99925.44
2022-09-16T20:14:07.413Z,99928.44
2022-09-16T20:17:11.298Z,99929.72
2022-09-16T20:20:13.823Z,99939.97
2022-09-16T20:23:16.337Z,99925.06
2022-09-16T20:26:20.214Z,99931.91
2022-09-16T20:29:22.712Z,99931.56
2022-09-16T20:32:26.748Z,99942.09
2022-09-16T20:35:29.229Z,99942.09
2022-09-16T20:38:31.992Z,99944.00
2022-09-16T20:41:36.280Z,99947.97
2022-09-16T20:44:38.752Z,99950.78
2022-09-16T20:47:42.588Z,99963.22
2022-09-16T20:50:45.100Z,99956.25
2022-09-16T20:53:52.030Z,99956.06
2022-09-16T20:56:54.772Z,99956.63
2022-09-16T20:59:57.518Z,99964.69
2022-09-16T21:03:01.376Z,99964.28
2022-09-16T21:06:06.682Z,99971.53
2022-09-16T21:09:12.313Z,99976.66
2022-09-16T21:12:16.952Z,99987.41
2022-09-16T21:15:19.599Z,99985.59
2022-09-16T21:18:23.505Z,99986.47
2022-09-16T21:21:27.657Z,99996.50
2022-09-16T21:24:31.960Z,100000.56
2022-09-16T21:27:34.558Z,100006.19
2022-09-16T21:30:37.042Z,100011.00
2022-09-16T21:33:42.493Z,100005.25
2022-09-16T21:36:45.971Z,100011.38
2022-09-16T21:39:48.780Z,100014.03
2022-09-16T21:42:51.312Z,100009.84
2022-09-16T21:45:54.137Z,100010.19
2022-09-16T21:49:03.140Z,100013.81
2022-09-16T21:52:05.845Z,100009.44
2022-09-16T21:55:09.071Z,100007.44
2022-09-16T21:58:11.928Z,100022.16
2022-09-16T22:01:16.806Z,100018.31
2022-09-16T22:04:22.714Z,100016.41
2022-09-16T22:07:25.257Z,100018.84
2022-09-16T22:10:28.022Z,100017.97
2022-09-16T22:13:31.562Z,100012.53
2022-09-16T22:16:37.097Z,100013.38
2022-09-16T22:19:40.965Z,100020.22
2022-09-16T22:22:43.573Z,100016.59
2022-09-16T22:25:46.429Z,100018.31
2022-09-16T22:28:49.868Z,100021.91
2022-09-16T22:31:52.448Z,100019.56
2022-09-16T22:34:56.392Z,100019.56
2022-09-16T22:37:58.883Z,100020.22
2022-09-16T22:41:01.503Z,100025.44
2022-09-16T22:44:04.619Z,100020.28
2022-09-16T22:47:07.712Z,100030.03
2022-09-16T22:50:11.594Z,100021.66
2022-09-16T22:53:14.079Z,100026.81
2022-09-16T22:56:18.906Z,100037.06
2022-09-16T22:59:21.782Z,100031.72
2022-09-16T23:02:24.309Z,100030.88
2022-09-16T23:05:28.448Z,100035.56
2022-09-16T23:08:31.819Z,100042.03
2022-09-16T23:11:36.133Z,100030.03
2022-09-16T23:14:38.633Z,100039.94
2022-09-16T23:17:41.497Z,100031.75
2022-09-16T23:20:45.338Z,100036.47
2022-09-16T23:23:49.410Z,100030.59
2022-09-16T23:26:52.015Z,100025.59
2022-09-16T23:29:54.601Z,100028.56
2022-09-16T23:32:57.271Z,100029.66
2022-09-16T23:36:01.593Z,100032.13
2022-09-16T23:39:05.350Z,100038.19
2022-09-16T23:42:07.991Z,100032.84
2022-09-16T23:45:10.925Z,100035.22
2022-09-16T23:48:14.229Z,100039.06
2022-09-16T23:51:21.062Z,100042.16
2022-09-16T23:54:26.010Z,100040.50
2022-09-16T23:57:28.503Z,100037.09
